MFQ weather

Maradi Airport
Maradi, Maradi Region, Niger

Public forecast

Using degrees Celsius for public forecast. Weather courtesy of forecast.io.

METAR (pilot weather report)

Retrieved 2019/02/18 06:00 UTC (33 minutes ago):

DRRM 180600Z 10006KT 6000 NSC 15/M03 Q1015

TAF (pilot weather forecast)

Closest forecast is Zinder Airport, 109.6 nm (203.0 km) E. Retrieved 2019/02/18 06:21 UTC (12 minutes ago):

TAF DRZR 180500Z 1806/1906 10010KT 6000 NSC TEMPO 1806/1809 3500 DU TEMPO 1809/1812 10020KT 4000 BLDU